OPA Logo
 
ASOS:
At:2021.02.26 0015 UTC
Wind:260° @ 11-19 KT
Viz: 10 mile(s)
Sky: clear
Temp: 46 F (8 C)
DewP: 19 F (-7 C)
RH: 33%
Baro: 30.11 in.
ob: KBDN 260015Z AUTO 26011G19KT 10SM CLR 08/M07 A3011 RMK AO2

ASOS: KRDM
At:2021.02.25 2356 UTC
Wind:280° @ 22-31 KT
Viz: 10 mile(s)
Sky: clear
Temp: 45.0 F (7.2 C)
DewP: 23.0 F (-5.0 C)
RH: 41%
Baro: 30.09 in.
ob: KRDM 252356Z 28022G31KT 10SM CLR 07/M05 A3009 RMK AO2 PK WND 27038/2339 SLP198 T00721050 10106 20072 55009
Apache-SSL Logo

Valid HTML 4.01!

Central Oregon OPA Chapter

Chapter Officers 2006:

President
Gary E. Miller
109 NW Wilmington Ave.
Bend OR 97701
541 382-8588
gem@rellim.com

Vice President:
Open

Secretary/Treasurer:
Don Wilfong
210 SE Cessna Dr
Bend OR 97702
541 389-1456
dwnw@bendbroadband.com


Web page by: gem@rellim.com